sensor_id;sensor_type;location;lat;lon;timestamp;pressure;altitude;pressure_sealevel;temperature;humidity
5954;BME280;3002;42.642;24.812;2023-12-20T00:02:24;96786.38;;;7.92;83.62
5954;BME280;3002;42.642;24.812;2023-12-20T00:04:49;96776.16;;;7.84;84.13
5954;BME280;3002;42.642;24.812;2023-12-20T00:07:15;96779.66;;;7.90;84.83
5954;BME280;3002;42.642;24.812;2023-12-20T00:09:40;96789.84;;;8.03;83.01
5954;BME280;3002;42.642;24.812;2023-12-20T00:12:06;96784.25;;;7.99;83.54
5954;BME280;3002;42.642;24.812;2023-12-20T00:14:32;96780.09;;;8.39;80.16
5954;BME280;3002;42.642;24.812;2023-12-20T00:16:57;96782.97;;;8.17;80.51
5954;BME280;3002;42.642;24.812;2023-12-20T00:19:22;96790.50;;;7.58;88.03
5954;BME280;3002;42.642;24.812;2023-12-20T00:21:48;96794.66;;;7.38;92.27
5954;BME280;3002;42.642;24.812;2023-12-20T00:24:13;96780.16;;;7.24;92.38
5954;BME280;3002;42.642;24.812;2023-12-20T00:26:39;96779.69;;;7.32;92.49
5954;BME280;3002;42.642;24.812;2023-12-20T00:29:07;96771.22;;;7.45;89.31
5954;BME280;3002;42.642;24.812;2023-12-20T00:31:33;96777.63;;;7.49;87.47
5954;BME280;3002;42.642;24.812;2023-12-20T00:33:58;96765.47;;;7.79;84.56
5954;BME280;3002;42.642;24.812;2023-12-20T00:36:23;96765.47;;;7.74;83.64
5954;BME280;3002;42.642;24.812;2023-12-20T00:38:49;96766.84;;;7.87;81.59
5954;BME280;3002;42.642;24.812;2023-12-20T00:41:15;96756.50;;;7.43;85.73
5954;BME280;3002;42.642;24.812;2023-12-20T00:43:41;96754.25;;;7.72;83.23
5954;BME280;3002;42.642;24.812;2023-12-20T00:46:06;96754.72;;;7.59;84.60
5954;BME280;3002;42.642;24.812;2023-12-20T00:48:31;96744.97;;;7.27;86.71
5954;BME280;3002;42.642;24.812;2023-12-20T00:50:57;96746.03;;;7.26;87.70
5954;BME280;3002;42.642;24.812;2023-12-20T00:53:22;96750.06;;;6.86;92.77
5954;BME280;3002;42.642;24.812;2023-12-20T00:55:48;96741.13;;;7.08;93.39
5954;BME280;3002;42.642;24.812;2023-12-20T00:58:13;96735.44;;;7.41;89.95
5954;BME280;3002;42.642;24.812;2023-12-20T01:00:40;96734.91;;;7.49;88.56
5954;BME280;3002;42.642;24.812;2023-12-20T01:03:07;96724.88;;;7.72;85.40
5954;BME280;3002;42.642;24.812;2023-12-20T01:05:32;96739.53;;;7.64;85.81
5954;BME280;3002;42.642;24.812;2023-12-20T01:07:58;96723.44;;;7.44;88.22
5954;BME280;3002;42.642;24.812;2023-12-20T01:10:23;96723.72;;;7.47;87.14
5954;BME280;3002;42.642;24.812;2023-12-20T01:12:53;96732.84;;;7.04;92.78
5954;BME280;3002;42.642;24.812;2023-12-20T01:15:18;96725.47;;;7.21;90.33
5954;BME280;3002;42.642;24.812;2023-12-20T01:17:44;96712.75;;;7.39;88.65
5954;BME280;3002;42.642;24.812;2023-12-20T01:20:09;96725.28;;;7.43;87.88
5954;BME280;3002;42.642;24.812;2023-12-20T01:22:35;96716.50;;;7.43;87.39
5954;BME280;3002;42.642;24.812;2023-12-20T01:25:01;96705.28;;;7.41;88.48
5954;BME280;3002;42.642;24.812;2023-12-20T01:27:27;96705.44;;;7.19;91.14
5954;BME280;3002;42.642;24.812;2023-12-20T01:29:53;96700.47;;;6.85;96.04
5954;BME280;3002;42.642;24.812;2023-12-20T01:32:20;96695.38;;;7.26;92.63
5954;BME280;3002;42.642;24.812;2023-12-20T01:34:45;96692.50;;;6.95;95.66
5954;BME280;3002;42.642;24.812;2023-12-20T01:37:11;96671.41;;;6.84;96.36
5954;BME280;3002;42.642;24.812;2023-12-20T01:39:36;96673.09;;;7.00;95.53
5954;BME280;3002;42.642;24.812;2023-12-20T01:42:02;96655.22;;;7.01;94.04
5954;BME280;3002;42.642;24.812;2023-12-20T01:44:27;96665.72;;;7.22;91.35
5954;BME280;3002;42.642;24.812;2023-12-20T01:46:53;96654.53;;;7.31;89.31
5954;BME280;3002;42.642;24.812;2023-12-20T01:49:18;96659.97;;;7.51;88.15
5954;BME280;3002;42.642;24.812;2023-12-20T01:51:44;96659.09;;;7.35;88.24
5954;BME280;3002;42.642;24.812;2023-12-20T01:54:10;96664.00;;;7.01;92.07
5954;BME280;3002;42.642;24.812;2023-12-20T01:56:36;96666.69;;;6.96;91.91
5954;BME280;3002;42.642;24.812;2023-12-20T01:59:01;96654.59;;;6.83;92.20
5954;BME280;3002;42.642;24.812;2023-12-20T02:01:27;96639.47;;;6.99;90.52
5954;BME280;3002;42.642;24.812;2023-12-20T02:03:53;96646.44;;;7.05;92.03
5954;BME280;3002;42.642;24.812;2023-12-20T02:06:21;96636.69;;;7.36;89.67
5954;BME280;3002;42.642;24.812;2023-12-20T02:08:49;96626.66;;;7.74;84.87
5954;BME280;3002;42.642;24.812;2023-12-20T02:11:15;96623.13;;;7.53;86.14
5954;BME280;3002;42.642;24.812;2023-12-20T02:13:41;96612.69;;;7.36;89.20
5954;BME280;3002;42.642;24.812;2023-12-20T02:16:06;96603.59;;;7.22;89.36
5954;BME280;3002;42.642;24.812;2023-12-20T02:18:33;96587.53;;;7.07;90.63
5954;BME280;3002;42.642;24.812;2023-12-20T02:20:58;96598.53;;;7.31;89.60
5954;BME280;3002;42.642;24.812;2023-12-20T02:23:23;96592.94;;;7.37;87.27
5954;BME280;3002;42.642;24.812;2023-12-20T02:25:49;96598.84;;;7.44;86.07
5954;BME280;3002;42.642;24.812;2023-12-20T02:28:15;96582.84;;;7.44;84.44
5954;BME280;3002;42.642;24.812;2023-12-20T02:30:41;96576.00;;;6.86;86.73
5954;BME280;3002;42.642;24.812;2023-12-20T02:33:12;96598.31;;;7.47;84.55
5954;BME280;3002;42.642;24.812;2023-12-20T02:35:37;96596.13;;;7.29;83.91
5954;BME280;3002;42.642;24.812;2023-12-20T02:38:03;96592.66;;;7.23;84.32
5954;BME280;3002;42.642;24.812;2023-12-20T02:40:28;96597.78;;;7.61;82.38
5954;BME280;3002;42.642;24.812;2023-12-20T02:42:54;96586.84;;;7.47;82.88
5954;BME280;3002;42.642;24.812;2023-12-20T02:45:19;96589.94;;;7.08;85.09
5954;BME280;3002;42.642;24.812;2023-12-20T02:47:45;96573.69;;;7.15;85.14
5954;BME280;3002;42.642;24.812;2023-12-20T02:50:10;96580.69;;;7.36;83.17
5954;BME280;3002;42.642;24.812;2023-12-20T02:52:36;96580.13;;;7.24;82.70
5954;BME280;3002;42.642;24.812;2023-12-20T02:55:01;96584.19;;;7.52;81.19
5954;BME280;3002;42.642;24.812;2023-12-20T02:57:26;96580.59;;;7.06;85.36
5954;BME280;3002;42.642;24.812;2023-12-20T02:59:52;96583.03;;;7.17;85.22
5954;BME280;3002;42.642;24.812;2023-12-20T03:02:17;96581.72;;;7.20;84.95
5954;BME280;3002;42.642;24.812;2023-12-20T03:04:43;96583.81;;;7.13;85.40
5954;BME280;3002;42.642;24.812;2023-12-20T03:07:08;96582.22;;;7.12;85.96
5954;BME280;3002;42.642;24.812;2023-12-20T03:09:33;96590.22;;;7.17;85.39
5954;BME280;3002;42.642;24.812;2023-12-20T03:11:59;96590.28;;;7.27;85.58
5954;BME280;3002;42.642;24.812;2023-12-20T03:14:24;96565.13;;;7.13;84.04
5954;BME280;3002;42.642;24.812;2023-12-20T03:16:50;96573.22;;;7.33;82.61
5954;BME280;3002;42.642;24.812;2023-12-20T03:19:17;96581.47;;;7.37;82.60
5954;BME280;3002;42.642;24.812;2023-12-20T03:21:42;96568.31;;;7.00;86.24
5954;BME280;3002;42.642;24.812;2023-12-20T03:24:08;96559.75;;;6.92;86.48
5954;BME280;3002;42.642;24.812;2023-12-20T03:26:33;96568.09;;;7.16;85.74
5954;BME280;3002;42.642;24.812;2023-12-20T03:28:58;96567.81;;;7.08;85.70
5954;BME280;3002;42.642;24.812;2023-12-20T03:31:24;96560.78;;;6.86;87.81
5954;BME280;3002;42.642;24.812;2023-12-20T03:33:49;96547.50;;;7.02;85.60
5954;BME280;3002;42.642;24.812;2023-12-20T03:36:19;96555.50;;;7.02;85.88
5954;BME280;3002;42.642;24.812;2023-12-20T03:38:44;96554.22;;;7.09;84.92
5954;BME280;3002;42.642;24.812;2023-12-20T03:41:11;96551.56;;;7.14;84.44
5954;BME280;3002;42.642;24.812;2023-12-20T03:43:36;96552.78;;;6.86;85.53
5954;BME280;3002;42.642;24.812;2023-12-20T03:46:03;96564.00;;;6.88;87.70
5954;BME280;3002;42.642;24.812;2023-12-20T03:48:30;96557.09;;;6.97;86.42
5954;BME280;3002;42.642;24.812;2023-12-20T03:50:56;96559.06;;;6.55;92.26
5954;BME280;3002;42.642;24.812;2023-12-20T03:53:22;96547.41;;;6.66;90.18
5954;BME280;3002;42.642;24.812;2023-12-20T03:55:47;96550.13;;;6.86;88.30
5954;BME280;3002;42.642;24.812;2023-12-20T03:58:13;96553.88;;;6.85;87.54
5954;BME280;3002;42.642;24.812;2023-12-20T04:00:38;96554.41;;;6.92;86.07
5954;BME280;3002;42.642;24.812;2023-12-20T04:03:04;96536.78;;;6.81;86.13
5954;BME280;3002;42.642;24.812;2023-12-20T04:05:29;96542.16;;;6.91;84.65
5954;BME280;3002;42.642;24.812;2023-12-20T04:07:55;96534.91;;;6.82;85.85
5954;BME280;3002;42.642;24.812;2023-12-20T04:10:20;96541.31;;;6.81;85.42
5954;BME280;3002;42.642;24.812;2023-12-20T04:12:46;96535.13;;;6.70;85.36
5954;BME280;3002;42.642;24.812;2023-12-20T04:15:11;96545.75;;;6.60;87.18
5954;BME280;3002;42.642;24.812;2023-12-20T04:17:37;96534.84;;;6.61;87.94
5954;BME280;3002;42.642;24.812;2023-12-20T04:20:03;96527.66;;;6.62;88.07
5954;BME280;3002;42.642;24.812;2023-12-20T04:22:28;96539.06;;;6.52;90.00
5954;BME280;3002;42.642;24.812;2023-12-20T04:24:54;96535.09;;;6.55;90.44
5954;BME280;3002;42.642;24.812;2023-12-20T04:27:19;96529.72;;;6.50;92.03
5954;BME280;3002;42.642;24.812;2023-12-20T04:29:44;96528.91;;;6.44;91.71
5954;BME280;3002;42.642;24.812;2023-12-20T04:32:10;96531.00;;;6.37;93.16
5954;BME280;3002;42.642;24.812;2023-12-20T04:34:36;96522.91;;;6.22;93.82
5954;BME280;3002;42.642;24.812;2023-12-20T04:37:04;96522.78;;;6.49;91.56
5954;BME280;3002;42.642;24.812;2023-12-20T04:39:29;96523.31;;;6.46;90.76
5954;BME280;3002;42.642;24.812;2023-12-20T04:41:55;96507.75;;;6.27;91.46
5954;BME280;3002;42.642;24.812;2023-12-20T04:44:20;96529.41;;;6.36;91.72
5954;BME280;3002;42.642;24.812;2023-12-20T04:46:45;96513.91;;;5.90;95.69
5954;BME280;3002;42.642;24.812;2023-12-20T04:49:11;96506.72;;;6.33;90.57
5954;BME280;3002;42.642;24.812;2023-12-20T04:51:36;96506.72;;;6.33;91.08
5954;BME280;3002;42.642;24.812;2023-12-20T04:54:03;96514.16;;;6.26;92.98
5954;BME280;3002;42.642;24.812;2023-12-20T04:56:28;96505.16;;;6.37;92.68
5954;BME280;3002;42.642;24.812;2023-12-20T04:58:54;96511.09;;;6.55;90.57
5954;BME280;3002;42.642;24.812;2023-12-20T05:01:19;96511.75;;;6.25;92.16
5954;BME280;3002;42.642;24.812;2023-12-20T05:03:45;96517.31;;;6.23;93.28
5954;BME280;3002;42.642;24.812;2023-12-20T05:06:11;96523.16;;;6.20;92.41
5954;BME280;3002;42.642;24.812;2023-12-20T05:08:36;96509.78;;;6.10;93.84
5954;BME280;3002;42.642;24.812;2023-12-20T05:11:03;96503.16;;;6.17;94.38
5954;BME280;3002;42.642;24.812;2023-12-20T05:13:29;96509.28;;;6.13;95.26
5954;BME280;3002;42.642;24.812;2023-12-20T05:15:54;96512.25;;;6.22;93.90
5954;BME280;3002;42.642;24.812;2023-12-20T05:18:21;96501.66;;;6.32;92.67
5954;BME280;3002;42.642;24.812;2023-12-20T05:20:47;96493.88;;;6.20;93.01
5954;BME280;3002;42.642;24.812;2023-12-20T05:23:12;96502.06;;;6.08;94.23
5954;BME280;3002;42.642;24.812;2023-12-20T05:25:38;96489.22;;;6.42;91.47
5954;BME280;3002;42.642;24.812;2023-12-20T05:28:05;96470.56;;;6.48;90.86
5954;BME280;3002;42.642;24.812;2023-12-20T05:30:32;96479.88;;;6.45;92.20
5954;BME280;3002;42.642;24.812;2023-12-20T05:32:57;96481.00;;;6.54;91.24
5954;BME280;3002;42.642;24.812;2023-12-20T05:35:22;96485.97;;;6.30;94.96
5954;BME280;3002;42.642;24.812;2023-12-20T05:37:49;96496.19;;;6.59;91.07
5954;BME280;3002;42.642;24.812;2023-12-20T05:40:14;96490.50;;;6.40;92.43
5954;BME280;3002;42.642;24.812;2023-12-20T05:42:40;96487.13;;;6.55;89.97
5954;BME280;3002;42.642;24.812;2023-12-20T05:45:06;96477.00;;;6.57;89.45
5954;BME280;3002;42.642;24.812;2023-12-20T05:47:31;96486.06;;;6.56;90.05
5954;BME280;3002;42.642;24.812;2023-12-20T05:49:57;96486.28;;;6.44;90.64
5954;BME280;3002;42.642;24.812;2023-12-20T05:52:22;96469.97;;;6.35;91.74
5954;BME280;3002;42.642;24.812;2023-12-20T05:54:48;96450.66;;;6.60;88.89
5954;BME280;3002;42.642;24.812;2023-12-20T05:57:13;96460.00;;;6.73;87.86
5954;BME280;3002;42.642;24.812;2023-12-20T05:59:39;96464.41;;;6.37;92.45
5954;BME280;3002;42.642;24.812;2023-12-20T06:02:05;96481.47;;;6.36;93.16
5954;BME280;3002;42.642;24.812;2023-12-20T06:04:30;96477.53;;;6.59;90.70
5954;BME280;3002;42.642;24.812;2023-12-20T06:06:56;96463.94;;;6.55;90.13
5954;BME280;3002;42.642;24.812;2023-12-20T06:09:21;96474.94;;;6.74;88.67
5954;BME280;3002;42.642;24.812;2023-12-20T06:11:47;96447.63;;;6.41;93.43
5954;BME280;3002;42.642;24.812;2023-12-20T06:14:12;96435.19;;;6.62;91.64
5954;BME280;3002;42.642;24.812;2023-12-20T06:16:38;96435.47;;;6.76;90.90
5954;BME280;3002;42.642;24.812;2023-12-20T06:19:03;96432.56;;;6.83;89.94
5954;BME280;3002;42.642;24.812;2023-12-20T06:21:29;96435.00;;;6.94;88.81
5954;BME280;3002;42.642;24.812;2023-12-20T06:23:54;96430.22;;;7.47;88.62
5954;BME280;3002;42.642;24.812;2023-12-20T06:26:20;96430.38;;;12.16;62.85
5954;BME280;3002;42.642;24.812;2023-12-20T06:28:45;96432.09;;;15.12;51.41
5954;BME280;3002;42.642;24.812;2023-12-20T06:31:11;96445.19;;;17.35;45.86
5954;BME280;3002;42.642;24.812;2023-12-20T06:33:36;96455.06;;;18.52;42.04
5954;BME280;3002;42.642;24.812;2023-12-20T06:36:02;96451.56;;;19.24;40.76
5954;BME280;3002;42.642;24.812;2023-12-20T06:38:27;96446.28;;;17.22;41.77
5954;BME280;3002;42.642;24.812;2023-12-20T06:40:53;96448.22;;;18.79;40.48
5954;BME280;3002;42.642;24.812;2023-12-20T06:43:19;96446.59;;;19.14;39.59
5954;BME280;3002;42.642;24.812;2023-12-20T06:45:44;96448.47;;;17.62;41.77
5954;BME280;3002;42.642;24.812;2023-12-20T06:48:09;96441.78;;;18.01;41.77
5954;BME280;3002;42.642;24.812;2023-12-20T06:50:37;96437.13;;;18.96;38.90
5954;BME280;3002;42.642;24.812;2023-12-20T06:53:06;96440.97;;;16.67;43.24
5954;BME280;3002;42.642;24.812;2023-12-20T06:55:33;96444.69;;;19.67;40.13
5954;BME280;3002;42.642;24.812;2023-12-20T06:57:59;96453.34;;;16.85;43.40
5954;BME280;3002;42.642;24.812;2023-12-20T07:00:24;96450.28;;;16.57;45.16
5954;BME280;3002;42.642;24.812;2023-12-20T07:02:50;96446.66;;;15.97;45.41
5954;BME280;3002;42.642;24.812;2023-12-20T07:05:18;96439.47;;;16.48;45.74
5954;BME280;3002;42.642;24.812;2023-12-20T07:07:45;96437.00;;;15.62;47.90
5954;BME280;3002;42.642;24.812;2023-12-20T07:10:12;96419.41;;;18.16;43.08
5954;BME280;3002;42.642;24.812;2023-12-20T07:12:37;96408.63;;;18.78;39.65
5954;BME280;3002;42.642;24.812;2023-12-20T07:15:03;96413.00;;;19.75;38.83
5954;BME280;3002;42.642;24.812;2023-12-20T07:17:30;96413.44;;;19.09;39.44
5954;BME280;3002;42.642;24.812;2023-12-20T07:19:56;96410.72;;;19.09;38.50
5954;BME280;3002;42.642;24.812;2023-12-20T07:22:22;96410.47;;;18.28;40.49
5954;BME280;3002;42.642;24.812;2023-12-20T07:24:47;96402.19;;;21.40;37.42
5954;BME280;3002;42.642;24.812;2023-12-20T07:27:13;96407.13;;;22.35;35.15
5954;BME280;3002;42.642;24.812;2023-12-20T07:29:38;96414.63;;;21.96;35.20
5954;BME280;3002;42.642;24.812;2023-12-20T07:32:04;96408.63;;;23.05;34.75
5954;BME280;3002;42.642;24.812;2023-12-20T07:34:30;96410.44;;;22.02;35.33
5954;BME280;3002;42.642;24.812;2023-12-20T07:36:55;96411.66;;;21.85;36.18
5954;BME280;3002;42.642;24.812;2023-12-20T07:39:21;96416.50;;;22.83;33.93
5954;BME280;3002;42.642;24.812;2023-12-20T07:41:46;96424.53;;;21.46;35.69
5954;BME280;3002;42.642;24.812;2023-12-20T07:44:12;96413.06;;;22.40;34.07
5954;BME280;3002;42.642;24.812;2023-12-20T07:46:37;96410.50;;;20.93;35.31
5954;BME280;3002;42.642;24.812;2023-12-20T07:49:04;96410.19;;;19.71;37.85
5954;BME280;3002;42.642;24.812;2023-12-20T07:51:30;96400.50;;;20.18;37.22
5954;BME280;3002;42.642;24.812;2023-12-20T07:53:55;96406.16;;;20.56;35.97
5954;BME280;3002;42.642;24.812;2023-12-20T07:56:21;96402.59;;;19.93;36.69
5954;BME280;3002;42.642;24.812;2023-12-20T07:58:46;96393.66;;;21.61;35.07
5954;BME280;3002;42.642;24.812;2023-12-20T08:01:13;96374.34;;;23.11;33.17
5954;BME280;3002;42.642;24.812;2023-12-20T08:03:39;96387.38;;;22.94;31.85
5954;BME280;3002;42.642;24.812;2023-12-20T08:06:04;96384.69;;;21.41;34.56
5954;BME280;3002;42.642;24.812;2023-12-20T08:08:30;96396.84;;;22.74;33.58
5954;BME280;3002;42.642;24.812;2023-12-20T08:10:55;96390.00;;;22.15;33.41
5954;BME280;3002;42.642;24.812;2023-12-20T08:13:23;96398.84;;;21.66;35.39
5954;BME280;3002;42.642;24.812;2023-12-20T08:15:54;96390.31;;;20.62;36.71
5954;BME280;3002;42.642;24.812;2023-12-20T08:18:21;96380.59;;;20.61;36.14
5954;BME280;3002;42.642;24.812;2023-12-20T08:20:46;96370.25;;;20.86;36.57
5954;BME280;3002;42.642;24.812;2023-12-20T08:23:13;96364.84;;;20.54;36.09
5954;BME280;3002;42.642;24.812;2023-12-20T08:25:39;96366.97;;;19.98;37.83
5954;BME280;3002;42.642;24.812;2023-12-20T08:28:04;96369.03;;;22.00;35.98
5954;BME280;3002;42.642;24.812;2023-12-20T08:30:30;96353.38;;;23.22;32.78
5954;BME280;3002;42.642;24.812;2023-12-20T08:32:56;96346.28;;;25.46;30.95
5954;BME280;3002;42.642;24.812;2023-12-20T08:35:22;96330.47;;;25.18;30.14
5954;BME280;3002;42.642;24.812;2023-12-20T08:37:47;96334.59;;;23.91;31.30
5954;BME280;3002;42.642;24.812;2023-12-20T08:40:12;96332.75;;;22.98;33.24
5954;BME280;3002;42.642;24.812;2023-12-20T08:42:38;96324.19;;;22.01;34.96
5954;BME280;3002;42.642;24.812;2023-12-20T08:45:04;96326.66;;;22.55;34.08
5954;BME280;3002;42.642;24.812;2023-12-20T08:47:30;96324.09;;;23.97;32.72
5954;BME280;3002;42.642;24.812;2023-12-20T08:49:55;96323.72;;;21.14;36.32
5954;BME280;3002;42.642;24.812;2023-12-20T08:52:23;96319.47;;;20.78;37.06
5954;BME280;3002;42.642;24.812;2023-12-20T08:54:50;96316.38;;;19.97;40.30
5954;BME280;3002;42.642;24.812;2023-12-20T08:57:22;96309.88;;;21.84;36.92
5954;BME280;3002;42.642;24.812;2023-12-20T08:59:51;96307.44;;;17.50;43.52
5954;BME280;3002;42.642;24.812;2023-12-20T09:02:16;96304.50;;;17.09;46.77
5954;BME280;3002;42.642;24.812;2023-12-20T09:04:42;96299.59;;;16.40;47.70
5954;BME280;3002;42.642;24.812;2023-12-20T09:07:26;96288.78;;;19.23;43.85
5954;BME280;3002;42.642;24.812;2023-12-20T09:09:54;96289.34;;;19.88;42.25
5954;BME280;3002;42.642;24.812;2023-12-20T09:12:21;96285.03;;;18.59;45.61
5954;BME280;3002;42.642;24.812;2023-12-20T09:14:47;96276.81;;;21.89;39.39
5954;BME280;3002;42.642;24.812;2023-12-20T09:17:13;96276.84;;;21.93;37.94
5954;BME280;3002;42.642;24.812;2023-12-20T09:19:39;96273.28;;;21.24;39.92
5954;BME280;3002;42.642;24.812;2023-12-20T09:22:05;96267.41;;;23.23;36.91
5954;BME280;3002;42.642;24.812;2023-12-20T09:24:31;96266.28;;;23.28;35.81
5954;BME280;3002;42.642;24.812;2023-12-20T09:26:57;96261.78;;;23.46;36.22
5954;BME280;3002;42.642;24.812;2023-12-20T09:29:23;96259.47;;;20.23;40.79
5954;BME280;3002;42.642;24.812;2023-12-20T09:31:48;96243.94;;;21.17;38.59
5954;BME280;3002;42.642;24.812;2023-12-20T09:34:15;96249.97;;;16.06;48.12
5954;BME280;3002;42.642;24.812;2023-12-20T09:36:41;96239.34;;;20.28;42.03
5954;BME280;3002;42.642;24.812;2023-12-20T09:39:13;96229.03;;;20.72;40.22
5954;BME280;3002;42.642;24.812;2023-12-20T09:41:43;96216.56;;;22.28;37.83
5954;BME280;3002;42.642;24.812;2023-12-20T09:44:14;96214.66;;;23.63;35.74
5954;BME280;3002;42.642;24.812;2023-12-20T09:46:43;96207.81;;;21.92;37.07
5954;BME280;3002;42.642;24.812;2023-12-20T09:49:09;96205.34;;;20.22;39.83
5954;BME280;3002;42.642;24.812;2023-12-20T09:51:36;96202.03;;;19.62;40.44
5954;BME280;3002;42.642;24.812;2023-12-20T09:54:03;96205.72;;;19.10;41.07
5954;BME280;3002;42.642;24.812;2023-12-20T09:56:29;96187.69;;;18.21;42.45
5954;BME280;3002;42.642;24.812;2023-12-20T09:58:55;96195.19;;;18.00;42.62
5954;BME280;3002;42.642;24.812;2023-12-20T10:01:21;96192.72;;;17.82;44.06
5954;BME280;3002;42.642;24.812;2023-12-20T10:03:47;96184.06;;;17.19;46.07
5954;BME280;3002;42.642;24.812;2023-12-20T10:06:12;96191.28;;;14.75;52.12
5954;BME280;3002;42.642;24.812;2023-12-20T10:08:39;96187.91;;;16.85;48.96
5954;BME280;3002;42.642;24.812;2023-12-20T10:11:05;96181.28;;;17.64;47.18
5954;BME280;3002;42.642;24.812;2023-12-20T10:13:30;96195.22;;;16.51;49.67
5954;BME280;3002;42.642;24.812;2023-12-20T10:15:56;96172.06;;;18.58;45.34
5954;BME280;3002;42.642;24.812;2023-12-20T10:18:22;96176.47;;;19.50;42.99
5954;BME280;3002;42.642;24.812;2023-12-20T10:20:48;96168.59;;;20.31;42.08
5954;BME280;3002;42.642;24.812;2023-12-20T10:23:15;96158.31;;;21.45;40.42
5954;BME280;3002;42.642;24.812;2023-12-20T10:25:41;96147.56;;;22.35;38.44
5954;BME280;3002;42.642;24.812;2023-12-20T10:28:14;96152.50;;;23.64;35.34
5954;BME280;3002;42.642;24.812;2023-12-20T10:30:44;96153.88;;;24.61;34.40
5954;BME280;3002;42.642;24.812;2023-12-20T10:33:09;96131.69;;;24.14;34.05
5954;BME280;3002;42.642;24.812;2023-12-20T10:35:35;96145.66;;;22.69;34.59
5954;BME280;3002;42.642;24.812;2023-12-20T10:38:04;96135.97;;;21.35;37.11
5954;BME280;3002;42.642;24.812;2023-12-20T10:40:30;96127.81;;;21.16;37.67
5954;BME280;3002;42.642;24.812;2023-12-20T10:42:56;96137.53;;;20.71;38.26
5954;BME280;3002;42.642;24.812;2023-12-20T10:45:23;96130.22;;;21.67;37.44
5954;BME280;3002;42.642;24.812;2023-12-20T10:47:50;96136.00;;;19.81;39.25
5954;BME280;3002;42.642;24.812;2023-12-20T10:50:15;96139.13;;;18.32;41.45
5954;BME280;3002;42.642;24.812;2023-12-20T10:52:42;96136.22;;;21.07;38.97
5954;BME280;3002;42.642;24.812;2023-12-20T10:55:10;96136.88;;;22.53;35.44
5954;BME280;3002;42.642;24.812;2023-12-20T10:57:42;96129.31;;;22.76;35.30
5954;BME280;3002;42.642;24.812;2023-12-20T11:00:09;96126.03;;;22.30;35.42
5954;BME280;3002;42.642;24.812;2023-12-20T11:02:40;96126.34;;;23.70;33.68
5954;BME280;3002;42.642;24.812;2023-12-20T11:08:03;96124.41;;;21.23;35.97
5954;BME280;3002;42.642;24.812;2023-12-20T11:10:43;96113.16;;;20.59;37.57
5954;BME280;3002;42.642;24.812;2023-12-20T11:13:21;96109.69;;;23.01;33.57
5954;BME280;3002;42.642;24.812;2023-12-20T11:15:48;96100.81;;;24.28;31.50
5954;BME280;3002;42.642;24.812;2023-12-20T11:18:14;96100.16;;;23.76;32.06
5954;BME280;3002;42.642;24.812;2023-12-20T11:20:41;96100.34;;;25.42;30.85
5954;BME280;3002;42.642;24.812;2023-12-20T11:23:08;96091.34;;;25.73;30.46
5954;BME280;3002;42.642;24.812;2023-12-20T11:26:06;96078.38;;;25.56;30.27
5954;BME280;3002;42.642;24.812;2023-12-20T11:28:32;96077.94;;;26.00;30.06
5954;BME280;3002;42.642;24.812;2023-12-20T11:30:58;96069.38;;;25.34;30.48
5954;BME280;3002;42.642;24.812;2023-12-20T11:33:26;96064.97;;;24.72;30.92
5954;BME280;3002;42.642;24.812;2023-12-20T11:35:59;96065.75;;;24.76;31.17
5954;BME280;3002;42.642;24.812;2023-12-20T11:38:25;96051.31;;;25.19;30.99
5954;BME280;3002;42.642;24.812;2023-12-20T11:40:51;96045.47;;;25.27;30.68
5954;BME280;3002;42.642;24.812;2023-12-20T11:43:38;96027.88;;;23.98;32.79
5954;BME280;3002;42.642;24.812;2023-12-20T11:46:07;96033.09;;;21.92;35.15
5954;BME280;3002;42.642;24.812;2023-12-20T11:48:35;96037.38;;;22.61;34.12
5954;BME280;3002;42.642;24.812;2023-12-20T11:51:01;96021.13;;;24.83;32.30
5954;BME280;3002;42.642;24.812;2023-12-20T11:53:26;96013.41;;;23.98;32.45
5954;BME280;3002;42.642;24.812;2023-12-20T11:55:54;96005.97;;;21.47;35.49
5954;BME280;3002;42.642;24.812;2023-12-20T11:58:19;96008.66;;;22.78;34.33
5954;BME280;3002;42.642;24.812;2023-12-20T12:00:45;96003.31;;;21.01;37.08
5954;BME280;3002;42.642;24.812;2023-12-20T12:03:14;95998.94;;;22.84;34.76
5954;BME280;3002;42.642;24.812;2023-12-20T12:05:40;95992.84;;;21.86;35.95
5954;BME280;3002;42.642;24.812;2023-12-20T12:08:05;95995.75;;;21.40;36.84
5954;BME280;3002;42.642;24.812;2023-12-20T12:10:31;95992.19;;;22.30;35.06
5954;BME280;3002;42.642;24.812;2023-12-20T12:12:56;95983.59;;;23.75;33.34
5954;BME280;3002;42.642;24.812;2023-12-20T12:15:22;95974.41;;;24.29;32.14
5954;BME280;3002;42.642;24.812;2023-12-20T12:17:54;95972.56;;;22.99;34.46
5954;BME280;3002;42.642;24.812;2023-12-20T12:20:20;95971.53;;;20.40;37.70
5954;BME280;3002;42.642;24.812;2023-12-20T12:22:46;95967.75;;;22.44;34.90
5954;BME280;3002;42.642;24.812;2023-12-20T12:25:16;95971.81;;;23.64;33.60
5954;BME280;3002;42.642;24.812;2023-12-20T12:27:42;95972.03;;;24.17;32.94
5954;BME280;3002;42.642;24.812;2023-12-20T12:30:08;95966.13;;;22.84;34.48
5954;BME280;3002;42.642;24.812;2023-12-20T12:32:35;95970.69;;;23.10;35.12
5954;BME280;3002;42.642;24.812;2023-12-20T12:35:04;95963.63;;;23.74;34.00
5954;BME280;3002;42.642;24.812;2023-12-20T12:37:33;95965.06;;;23.54;33.51
5954;BME280;3002;42.642;24.812;2023-12-20T12:39:59;95951.34;;;23.47;33.90
5954;BME280;3002;42.642;24.812;2023-12-20T12:42:24;95949.78;;;24.94;31.64
5954;BME280;3002;42.642;24.812;2023-12-20T12:44:54;95939.22;;;23.44;33.70
5954;BME280;3002;42.642;24.812;2023-12-20T12:47:19;95935.25;;;24.29;32.31
5954;BME280;3002;42.642;24.812;2023-12-20T12:49:45;95941.19;;;24.95;31.39
5954;BME280;3002;42.642;24.812;2023-12-20T12:52:10;95934.31;;;21.23;36.42
5954;BME280;3002;42.642;24.812;2023-12-20T12:54:35;95942.72;;;19.77;38.99
5954;BME280;3002;42.642;24.812;2023-12-20T12:57:01;95944.22;;;21.35;36.99
5954;BME280;3002;42.642;24.812;2023-12-20T12:59:29;95944.25;;;20.59;37.92
5954;BME280;3002;42.642;24.812;2023-12-20T13:01:55;95947.31;;;20.80;38.12
5954;BME280;3002;42.642;24.812;2023-12-20T13:04:20;95945.72;;;18.51;41.32
5954;BME280;3002;42.642;24.812;2023-12-20T13:06:46;95944.66;;;19.76;39.64
5954;BME280;3002;42.642;24.812;2023-12-20T13:09:12;95945.63;;;20.49;38.77
5954;BME280;3002;42.642;24.812;2023-12-20T13:11:37;95944.41;;;19.62;39.33
5954;BME280;3002;42.642;24.812;2023-12-20T13:14:03;95938.63;;;19.48;39.80
5954;BME280;3002;42.642;24.812;2023-12-20T13:16:29;95939.56;;;17.78;43.52